sensor_id;sensor_type;location;lat;lon;timestamp;P1;durP1;ratioP1;P2;durP2;ratioP2
33830;SDS011;20137;48.834;8.732;2022-08-11T00:00:41;3.85;;;2.20;;
33830;SDS011;20137;48.834;8.732;2022-08-11T00:03:13;4.28;;;2.10;;
33830;SDS011;20137;48.834;8.732;2022-08-11T00:05:46;5.60;;;2.25;;
33830;SDS011;20137;48.834;8.732;2022-08-11T00:10:56;4.65;;;2.00;;
33830;SDS011;20137;48.834;8.732;2022-08-11T00:13:38;2.85;;;1.88;;
33830;SDS011;20137;48.834;8.732;2022-08-11T00:16:15;5.75;;;1.83;;
33830;SDS011;20137;48.834;8.732;2022-08-11T00:18:48;2.72;;;1.88;;
33830;SDS011;20137;48.834;8.732;2022-08-11T00:21:19;3.35;;;1.90;;
33830;SDS011;20137;48.834;8.732;2022-08-11T00:23:46;3.17;;;1.83;;
33830;SDS011;20137;48.834;8.732;2022-08-11T00:26:21;3.95;;;1.95;;
33830;SDS011;20137;48.834;8.732;2022-08-11T00:28:49;4.72;;;2.13;;
33830;SDS011;20137;48.834;8.732;2022-08-11T00:31:25;4.05;;;1.88;;
33830;SDS011;20137;48.834;8.732;2022-08-11T00:33:53;2.92;;;2.20;;
33830;SDS011;20137;48.834;8.732;2022-08-11T00:36:22;4.05;;;2.72;;
33830;SDS011;20137;48.834;8.732;2022-08-11T00:38:52;5.63;;;2.10;;
33830;SDS011;20137;48.834;8.732;2022-08-11T00:41:30;4.28;;;2.10;;
33830;SDS011;20137;48.834;8.732;2022-08-11T01:07:23;3.33;;;2.10;;
33830;SDS011;20137;48.834;8.732;2022-08-11T01:10:01;4.90;;;2.08;;
33830;SDS011;20137;48.834;8.732;2022-08-11T01:12:44;3.00;;;1.92;;
33830;SDS011;20137;48.834;8.732;2022-08-11T01:15:38;4.10;;;1.92;;
33830;SDS011;20137;48.834;8.732;2022-08-11T01:40:54;3.55;;;2.05;;
33830;SDS011;20137;48.834;8.732;2022-08-11T01:46:55;3.47;;;1.92;;
33830;SDS011;20137;48.834;8.732;2022-08-11T01:50:14;4.65;;;2.10;;
33830;SDS011;20137;48.834;8.732;2022-08-11T01:52:54;4.05;;;1.80;;
33830;SDS011;20137;48.834;8.732;2022-08-11T01:58:41;3.28;;;2.15;;
33830;SDS011;20137;48.834;8.732;2022-08-11T02:03:52;4.28;;;2.03;;
33830;SDS011;20137;48.834;8.732;2022-08-11T02:06:30;2.60;;;2.20;;
33830;SDS011;20137;48.834;8.732;2022-08-11T02:12:00;3.45;;;2.33;;
33830;SDS011;20137;48.834;8.732;2022-08-11T02:17:59;3.50;;;1.90;;
33830;SDS011;20137;48.834;8.732;2022-08-11T02:20:43;9.20;;;2.00;;
33830;SDS011;20137;48.834;8.732;2022-08-11T02:23:35;4.28;;;1.95;;
33830;SDS011;20137;48.834;8.732;2022-08-11T02:36:54;3.83;;;2.17;;
33830;SDS011;20137;48.834;8.732;2022-08-11T02:42:37;3.33;;;2.25;;
33830;SDS011;20137;48.834;8.732;2022-08-11T02:50:34;4.70;;;2.45;;
33830;SDS011;20137;48.834;8.732;2022-08-11T02:53:25;4.45;;;2.42;;
33830;SDS011;20137;48.834;8.732;2022-08-11T02:56:11;3.55;;;2.08;;
33830;SDS011;20137;48.834;8.732;2022-08-11T02:59:00;5.10;;;2.35;;
33830;SDS011;20137;48.834;8.732;2022-08-11T03:02:13;6.20;;;2.40;;
33830;SDS011;20137;48.834;8.732;2022-08-11T03:10:36;3.47;;;2.13;;
33830;SDS011;20137;48.834;8.732;2022-08-11T03:13:33;3.65;;;2.45;;
33830;SDS011;20137;48.834;8.732;2022-08-11T03:16:40;4.57;;;2.25;;
33830;SDS011;20137;48.834;8.732;2022-08-11T03:19:32;5.78;;;2.50;;
33830;SDS011;20137;48.834;8.732;2022-08-11T03:24:32;6.03;;;2.60;;
33830;SDS011;20137;48.834;8.732;2022-08-11T03:27:06;4.80;;;2.47;;
33830;SDS011;20137;48.834;8.732;2022-08-11T03:29:41;5.85;;;2.60;;
33830;SDS011;20137;48.834;8.732;2022-08-11T03:32:21;11.02;;;2.20;;
33830;SDS011;20137;48.834;8.732;2022-08-11T03:34:53;5.32;;;2.20;;
33830;SDS011;20137;48.834;8.732;2022-08-11T03:37:26;2.88;;;2.10;;
33830;SDS011;20137;48.834;8.732;2022-08-11T03:43:02;5.18;;;2.10;;
33830;SDS011;20137;48.834;8.732;2022-08-11T03:46:00;4.00;;;2.72;;
33830;SDS011;20137;48.834;8.732;2022-08-11T03:51:22;3.78;;;2.30;;
33830;SDS011;20137;48.834;8.732;2022-08-11T03:54:09;5.45;;;2.58;;
33830;SDS011;20137;48.834;8.732;2022-08-11T04:21:01;4.55;;;2.63;;
33830;SDS011;20137;48.834;8.732;2022-08-11T04:29:38;7.55;;;2.42;;
33830;SDS011;20137;48.834;8.732;2022-08-11T04:50:28;6.10;;;2.90;;
33830;SDS011;20137;48.834;8.732;2022-08-11T04:56:13;5.05;;;3.10;;
33830;SDS011;20137;48.834;8.732;2022-08-11T05:14:00;4.35;;;3.10;;
33830;SDS011;20137;48.834;8.732;2022-08-11T05:17:08;5.72;;;2.55;;
33830;SDS011;20137;48.834;8.732;2022-08-11T05:19:56;6.80;;;3.00;;
33830;SDS011;20137;48.834;8.732;2022-08-11T05:22:47;5.70;;;2.30;;
33830;SDS011;20137;48.834;8.732;2022-08-11T05:25:34;7.97;;;2.67;;
33830;SDS011;20137;48.834;8.732;2022-08-11T05:31:25;2.88;;;2.10;;
33830;SDS011;20137;48.834;8.732;2022-08-11T05:34:30;4.50;;;2.47;;
33830;SDS011;20137;48.834;8.732;2022-08-11T05:37:21;5.03;;;2.28;;
33830;SDS011;20137;48.834;8.732;2022-08-11T05:39:48;3.85;;;2.60;;
33830;SDS011;20137;48.834;8.732;2022-08-11T05:42:37;5.15;;;2.42;;
33830;SDS011;20137;48.834;8.732;2022-08-11T05:45:25;7.55;;;2.35;;
33830;SDS011;20137;48.834;8.732;2022-08-11T05:48:11;2.78;;;2.15;;
33830;SDS011;20137;48.834;8.732;2022-08-11T05:50:57;9.23;;;2.72;;
33830;SDS011;20137;48.834;8.732;2022-08-11T05:53:54;5.57;;;3.05;;
33830;SDS011;20137;48.834;8.732;2022-08-11T05:59:13;5.60;;;2.33;;
33830;SDS011;20137;48.834;8.732;2022-08-11T06:01:43;5.85;;;2.67;;
33830;SDS011;20137;48.834;8.732;2022-08-11T06:04:14;5.43;;;2.88;;
33830;SDS011;20137;48.834;8.732;2022-08-11T06:06:51;5.53;;;2.90;;
33830;SDS011;20137;48.834;8.732;2022-08-11T06:09:26;4.95;;;2.50;;
33830;SDS011;20137;48.834;8.732;2022-08-11T06:11:56;6.88;;;2.50;;
33830;SDS011;20137;48.834;8.732;2022-08-11T06:14:26;5.13;;;2.63;;
33830;SDS011;20137;48.834;8.732;2022-08-11T06:16:54;7.78;;;3.50;;
33830;SDS011;20137;48.834;8.732;2022-08-11T06:19:28;3.85;;;2.38;;
33830;SDS011;20137;48.834;8.732;2022-08-11T06:22:06;6.03;;;2.97;;
33830;SDS011;20137;48.834;8.732;2022-08-11T06:24:35;4.10;;;2.63;;
33830;SDS011;20137;48.834;8.732;2022-08-11T06:27:03;4.43;;;2.88;;
33830;SDS011;20137;48.834;8.732;2022-08-11T06:29:31;4.28;;;3.10;;
33830;SDS011;20137;48.834;8.732;2022-08-11T06:32:00;4.05;;;2.50;;
33830;SDS011;20137;48.834;8.732;2022-08-11T06:39:47;5.07;;;2.65;;
33830;SDS011;20137;48.834;8.732;2022-08-11T06:45:27;5.97;;;2.55;;
33830;SDS011;20137;48.834;8.732;2022-08-11T06:48:17;4.30;;;2.65;;
33830;SDS011;20137;48.834;8.732;2022-08-11T06:50:53;6.35;;;3.20;;
33830;SDS011;20137;48.834;8.732;2022-08-11T06:53:42;3.50;;;2.58;;
33830;SDS011;20137;48.834;8.732;2022-08-11T06:56:10;6.35;;;3.17;;
33830;SDS011;20137;48.834;8.732;2022-08-11T06:58:59;3.60;;;2.45;;
33830;SDS011;20137;48.834;8.732;2022-08-11T07:01:56;6.00;;;2.80;;
33830;SDS011;20137;48.834;8.732;2022-08-11T07:04:31;10.70;;;2.63;;
33830;SDS011;20137;48.834;8.732;2022-08-11T07:13:09;3.38;;;2.63;;
33830;SDS011;20137;48.834;8.732;2022-08-11T07:15:57;5.53;;;2.83;;
33830;SDS011;20137;48.834;8.732;2022-08-11T07:18:27;4.13;;;2.60;;
33830;SDS011;20137;48.834;8.732;2022-08-11T07:21:15;9.70;;;3.10;;
33830;SDS011;20137;48.834;8.732;2022-08-11T07:24:14;8.23;;;2.53;;
33830;SDS011;20137;48.834;8.732;2022-08-11T07:27:00;5.75;;;2.72;;
33830;SDS011;20137;48.834;8.732;2022-08-11T07:29:50;8.30;;;3.05;;
33830;SDS011;20137;48.834;8.732;2022-08-11T07:32:33;5.43;;;3.03;;
33830;SDS011;20137;48.834;8.732;2022-08-11T07:35:07;7.07;;;2.60;;
33830;SDS011;20137;48.834;8.732;2022-08-11T07:37:41;7.00;;;2.53;;
33830;SDS011;20137;48.834;8.732;2022-08-11T07:40:12;2.58;;;2.35;;
33830;SDS011;20137;48.834;8.732;2022-08-11T07:42:39;4.50;;;2.35;;
33830;SDS011;20137;48.834;8.732;2022-08-11T07:45:10;7.68;;;2.95;;
33830;SDS011;20137;48.834;8.732;2022-08-11T07:47:55;4.18;;;3.05;;
33830;SDS011;20137;48.834;8.732;2022-08-11T07:50:40;7.40;;;2.70;;
33830;SDS011;20137;48.834;8.732;2022-08-11T07:53:26;7.05;;;2.60;;
33830;SDS011;20137;48.834;8.732;2022-08-11T07:55:54;9.50;;;3.05;;
33830;SDS011;20137;48.834;8.732;2022-08-11T07:58:22;9.35;;;2.67;;
33830;SDS011;20137;48.834;8.732;2022-08-11T08:03:53;8.80;;;3.28;;
33830;SDS011;20137;48.834;8.732;2022-08-11T08:06:38;6.25;;;2.90;;
33830;SDS011;20137;48.834;8.732;2022-08-11T08:09:22;6.25;;;2.90;;
33830;SDS011;20137;48.834;8.732;2022-08-11T08:12:07;5.03;;;2.80;;
33830;SDS011;20137;48.834;8.732;2022-08-11T08:14:53;7.95;;;3.10;;
33830;SDS011;20137;48.834;8.732;2022-08-11T08:20:22;10.77;;;2.47;;
33830;SDS011;20137;48.834;8.732;2022-08-11T08:22:51;4.75;;;2.35;;
33830;SDS011;20137;48.834;8.732;2022-08-11T08:25:25;7.63;;;2.45;;
33830;SDS011;20137;48.834;8.732;2022-08-11T08:27:52;8.07;;;2.67;;
33830;SDS011;20137;48.834;8.732;2022-08-11T08:30:20;5.28;;;2.63;;
33830;SDS011;20137;48.834;8.732;2022-08-11T08:33:05;6.73;;;3.30;;
33830;SDS011;20137;48.834;8.732;2022-08-11T08:35:32;6.13;;;2.67;;
33830;SDS011;20137;48.834;8.732;2022-08-11T08:38:00;8.10;;;2.85;;
33830;SDS011;20137;48.834;8.732;2022-08-11T08:40:27;3.63;;;2.65;;
33830;SDS011;20137;48.834;8.732;2022-08-11T08:42:54;7.20;;;2.63;;
33830;SDS011;20137;48.834;8.732;2022-08-11T08:45:22;4.85;;;2.63;;
33830;SDS011;20137;48.834;8.732;2022-08-11T08:48:03;6.30;;;2.67;;
33830;SDS011;20137;48.834;8.732;2022-08-11T08:53:22;4.15;;;2.72;;
33830;SDS011;20137;48.834;8.732;2022-08-11T08:55:53;7.10;;;3.50;;
33830;SDS011;20137;48.834;8.732;2022-08-11T08:58:21;6.93;;;2.90;;
33830;SDS011;20137;48.834;8.732;2022-08-11T09:00:49;5.30;;;2.85;;
33830;SDS011;20137;48.834;8.732;2022-08-11T09:03:18;6.35;;;2.50;;
33830;SDS011;20137;48.834;8.732;2022-08-11T09:05:45;6.03;;;2.67;;
33830;SDS011;20137;48.834;8.732;2022-08-11T09:08:12;4.95;;;2.53;;
33830;SDS011;20137;48.834;8.732;2022-08-11T09:10:41;4.68;;;2.40;;
33830;SDS011;20137;48.834;8.732;2022-08-11T09:13:07;4.70;;;2.80;;
33830;SDS011;20137;48.834;8.732;2022-08-11T09:15:33;4.60;;;2.80;;
33830;SDS011;20137;48.834;8.732;2022-08-11T09:18:01;4.82;;;2.60;;
33830;SDS011;20137;48.834;8.732;2022-08-11T09:20:31;4.30;;;2.92;;
33830;SDS011;20137;48.834;8.732;2022-08-11T09:23:00;4.70;;;2.45;;
33830;SDS011;20137;48.834;8.732;2022-08-11T09:25:46;9.65;;;2.85;;
33830;SDS011;20137;48.834;8.732;2022-08-11T09:28:35;4.63;;;2.80;;
33830;SDS011;20137;48.834;8.732;2022-08-11T09:31:02;6.80;;;2.70;;
33830;SDS011;20137;48.834;8.732;2022-08-11T09:33:30;11.65;;;2.90;;
33830;SDS011;20137;48.834;8.732;2022-08-11T09:35:57;3.90;;;2.55;;
33830;SDS011;20137;48.834;8.732;2022-08-11T09:38:44;4.93;;;2.67;;
33830;SDS011;20137;48.834;8.732;2022-08-11T09:41:29;7.95;;;3.10;;
33830;SDS011;20137;48.834;8.732;2022-08-11T09:43:56;6.90;;;2.83;;
33830;SDS011;20137;48.834;8.732;2022-08-11T09:46:44;4.95;;;2.88;;
33830;SDS011;20137;48.834;8.732;2022-08-11T09:49:10;4.80;;;2.83;;
33830;SDS011;20137;48.834;8.732;2022-08-11T09:51:36;6.13;;;2.42;;
33830;SDS011;20137;48.834;8.732;2022-08-11T09:54:03;4.78;;;2.70;;
33830;SDS011;20137;48.834;8.732;2022-08-11T09:56:32;7.40;;;2.45;;
33830;SDS011;20137;48.834;8.732;2022-08-11T09:59:18;5.55;;;2.25;;
33830;SDS011;20137;48.834;8.732;2022-08-11T10:01:46;7.53;;;2.35;;
33830;SDS011;20137;48.834;8.732;2022-08-11T10:04:23;6.65;;;2.50;;
33830;SDS011;20137;48.834;8.732;2022-08-11T10:06:56;8.75;;;2.80;;
33830;SDS011;20137;48.834;8.732;2022-08-11T10:12:17;16.13;;;2.85;;
33830;SDS011;20137;48.834;8.732;2022-08-11T10:14:49;4.95;;;2.35;;
33830;SDS011;20137;48.834;8.732;2022-08-11T10:17:38;5.15;;;2.40;;
33830;SDS011;20137;48.834;8.732;2022-08-11T10:20:31;3.92;;;2.35;;
33830;SDS011;20137;48.834;8.732;2022-08-11T10:23:01;4.53;;;2.30;;
33830;SDS011;20137;48.834;8.732;2022-08-11T10:25:46;6.25;;;2.00;;
33830;SDS011;20137;48.834;8.732;2022-08-11T10:28:31;8.13;;;2.30;;
33830;SDS011;20137;48.834;8.732;2022-08-11T10:30:59;3.97;;;2.20;;
33830;SDS011;20137;48.834;8.732;2022-08-11T10:33:44;4.07;;;2.05;;
33830;SDS011;20137;48.834;8.732;2022-08-11T10:36:30;3.10;;;2.15;;
33830;SDS011;20137;48.834;8.732;2022-08-11T10:39:12;3.88;;;2.30;;
33830;SDS011;20137;48.834;8.732;2022-08-11T10:41:41;3.35;;;2.17;;
33830;SDS011;20137;48.834;8.732;2022-08-11T10:44:28;2.63;;;2.08;;
33830;SDS011;20137;48.834;8.732;2022-08-11T10:46:58;3.55;;;2.00;;
33830;SDS011;20137;48.834;8.732;2022-08-11T10:49:43;5.18;;;2.28;;
33830;SDS011;20137;48.834;8.732;2022-08-11T10:55:13;5.50;;;2.00;;
33830;SDS011;20137;48.834;8.732;2022-08-11T10:57:59;4.38;;;1.98;;
33830;SDS011;20137;48.834;8.732;2022-08-11T11:00:44;3.63;;;2.00;;
33830;SDS011;20137;48.834;8.732;2022-08-11T11:03:10;5.28;;;2.40;;
33830;SDS011;20137;48.834;8.732;2022-08-11T11:05:35;6.10;;;2.35;;
33830;SDS011;20137;48.834;8.732;2022-08-11T11:08:08;4.60;;;2.20;;
33830;SDS011;20137;48.834;8.732;2022-08-11T11:10:57;4.75;;;2.25;;
33830;SDS011;20137;48.834;8.732;2022-08-11T11:13:24;3.28;;;1.92;;
33830;SDS011;20137;48.834;8.732;2022-08-11T11:16:09;7.00;;;2.00;;
33830;SDS011;20137;48.834;8.732;2022-08-11T11:19:09;2.45;;;2.13;;
33830;SDS011;20137;48.834;8.732;2022-08-11T11:21:37;8.02;;;2.38;;
33830;SDS011;20137;48.834;8.732;2022-08-11T11:38:00;4.22;;;2.22;;
33830;SDS011;20137;48.834;8.732;2022-08-11T11:40:26;2.88;;;2.00;;
33830;SDS011;20137;48.834;8.732;2022-08-11T11:42:53;9.48;;;2.25;;
33830;SDS011;20137;48.834;8.732;2022-08-11T11:45:22;3.15;;;1.85;;
33830;SDS011;20137;48.834;8.732;2022-08-11T11:47:49;4.65;;;2.00;;
33830;SDS011;20137;48.834;8.732;2022-08-11T11:50:25;7.13;;;2.20;;
33830;SDS011;20137;48.834;8.732;2022-08-11T11:52:52;4.95;;;2.00;;
33830;SDS011;20137;48.834;8.732;2022-08-11T11:55:20;4.40;;;2.05;;
33830;SDS011;20137;48.834;8.732;2022-08-11T11:57:48;6.75;;;2.28;;
33830;SDS011;20137;48.834;8.732;2022-08-11T12:00:33;2.55;;;1.70;;
33830;SDS011;20137;48.834;8.732;2022-08-11T12:03:17;3.55;;;2.00;;
33830;SDS011;20137;48.834;8.732;2022-08-11T12:05:45;6.70;;;1.80;;
33830;SDS011;20137;48.834;8.732;2022-08-11T12:08:11;4.47;;;1.80;;
33830;SDS011;20137;48.834;8.732;2022-08-11T12:10:43;4.97;;;1.90;;
33830;SDS011;20137;48.834;8.732;2022-08-11T12:13:38;4.82;;;2.42;;
33830;SDS011;20137;48.834;8.732;2022-08-11T12:16:05;4.75;;;1.77;;
33830;SDS011;20137;48.834;8.732;2022-08-11T12:18:33;4.43;;;2.05;;
33830;SDS011;20137;48.834;8.732;2022-08-11T12:21:01;5.03;;;2.00;;
33830;SDS011;20137;48.834;8.732;2022-08-11T12:23:28;5.70;;;2.05;;
33830;SDS011;20137;48.834;8.732;2022-08-11T12:26:14;2.97;;;1.90;;
33830;SDS011;20137;48.834;8.732;2022-08-11T12:29:00;5.55;;;2.15;;
33830;SDS011;20137;48.834;8.732;2022-08-11T12:31:29;6.97;;;2.22;;
33830;SDS011;20137;48.834;8.732;2022-08-11T12:33:59;8.43;;;2.30;;
33830;SDS011;20137;48.834;8.732;2022-08-11T12:36:26;6.07;;;2.13;;
33830;SDS011;20137;48.834;8.732;2022-08-11T12:38:52;9.18;;;1.88;;
33830;SDS011;20137;48.834;8.732;2022-08-11T12:41:19;3.70;;;1.70;;
33830;SDS011;20137;48.834;8.732;2022-08-11T12:44:05;4.35;;;2.15;;
33830;SDS011;20137;48.834;8.732;2022-08-11T12:46:53;3.40;;;1.98;;
33830;SDS011;20137;48.834;8.732;2022-08-11T12:49:23;8.27;;;1.92;;
33830;SDS011;20137;48.834;8.732;2022-08-11T12:52:13;2.38;;;1.90;;
33830;SDS011;20137;48.834;8.732;2022-08-11T12:57:36;3.22;;;2.05;;
33830;SDS011;20137;48.834;8.732;2022-08-11T13:00:30;3.22;;;2.17;;
33830;SDS011;20137;48.834;8.732;2022-08-11T13:03:17;4.07;;;2.03;;
33830;SDS011;20137;48.834;8.732;2022-08-11T13:06:03;5.05;;;2.20;;
33830;SDS011;20137;48.834;8.732;2022-08-11T13:08:30;2.58;;;1.65;;
33830;SDS011;20137;48.834;8.732;2022-08-11T13:10:59;4.50;;;2.15;;
33830;SDS011;20137;48.834;8.732;2022-08-11T13:13:45;4.88;;;2.00;;
33830;SDS011;20137;48.834;8.732;2022-08-11T13:16:12;4.22;;;2.08;;
33830;SDS011;20137;48.834;8.732;2022-08-11T13:18:40;4.10;;;2.08;;
33830;SDS011;20137;48.834;8.732;2022-08-11T13:21:07;6.57;;;2.00;;
33830;SDS011;20137;48.834;8.732;2022-08-11T13:23:36;2.97;;;1.70;;
33830;SDS011;20137;48.834;8.732;2022-08-11T13:26:04;7.20;;;1.92;;
33830;SDS011;20137;48.834;8.732;2022-08-11T13:28:33;4.50;;;1.80;;
33830;SDS011;20137;48.834;8.732;2022-08-11T13:31:02;3.75;;;1.80;;
33830;SDS011;20137;48.834;8.732;2022-08-11T13:33:43;18.92;;;3.17;;
33830;SDS011;20137;48.834;8.732;2022-08-11T13:36:17;8.38;;;1.90;;
33830;SDS011;20137;48.834;8.732;2022-08-11T13:38:44;3.38;;;1.70;;
33830;SDS011;20137;48.834;8.732;2022-08-11T13:41:11;4.93;;;1.95;;
33830;SDS011;20137;48.834;8.732;2022-08-11T13:43:56;2.58;;;1.95;;
33830;SDS011;20137;48.834;8.732;2022-08-11T13:46:23;7.30;;;2.00;;
33830;SDS011;20137;48.834;8.732;2022-08-11T13:48:51;6.78;;;2.15;;
33830;SDS011;20137;48.834;8.732;2022-08-11T13:51:19;5.32;;;2.25;;
33830;SDS011;20137;48.834;8.732;2022-08-11T13:54:16;2.88;;;1.70;;
33830;SDS011;20137;48.834;8.732;2022-08-11T13:56:43;8.30;;;1.60;;
33830;SDS011;20137;48.834;8.732;2022-08-11T13:59:11;10.13;;;2.47;;
33830;SDS011;20137;48.834;8.732;2022-08-11T14:01:41;8.13;;;1.77;;
33830;SDS011;20137;48.834;8.732;2022-08-11T14:04:13;2.90;;;1.75;;
33830;SDS011;20137;48.834;8.732;2022-08-11T14:06:45;4.70;;;1.98;;
33830;SDS011;20137;48.834;8.732;2022-08-11T14:09:15;5.82;;;1.90;;
33830;SDS011;20137;48.834;8.732;2022-08-11T14:11:49;3.70;;;1.67;;
33830;SDS011;20137;48.834;8.732;2022-08-11T14:14:34;4.97;;;1.80;;
33830;SDS011;20137;48.834;8.732;2022-08-11T14:17:03;5.00;;;1.70;;
33830;SDS011;20137;48.834;8.732;2022-08-11T14:19:34;3.92;;;1.90;;
33830;SDS011;20137;48.834;8.732;2022-08-11T14:22:03;4.00;;;1.90;;
33830;SDS011;20137;48.834;8.732;2022-08-11T14:24:35;4.72;;;1.88;;
33830;SDS011;20137;48.834;8.732;2022-08-11T14:27:04;6.03;;;1.70;;
33830;SDS011;20137;48.834;8.732;2022-08-11T14:29:31;6.20;;;1.48;;
33830;SDS011;20137;48.834;8.732;2022-08-11T14:32:02;6.75;;;2.10;;
33830;SDS011;20137;48.834;8.732;2022-08-11T14:34:34;3.50;;;1.80;;
33830;SDS011;20137;48.834;8.732;2022-08-11T14:37:04;7.18;;;1.70;;
33830;SDS011;20137;48.834;8.732;2022-08-11T14:39:34;2.83;;;1.75;;
33830;SDS011;20137;48.834;8.732;2022-08-11T14:42:08;3.65;;;1.80;;
33830;SDS011;20137;48.834;8.732;2022-08-11T14:47:55;4.82;;;1.58;;
33830;SDS011;20137;48.834;8.732;2022-08-11T14:50:26;5.28;;;1.77;;
33830;SDS011;20137;48.834;8.732;2022-08-11T14:55:24;2.30;;;1.63;;
33830;SDS011;20137;48.834;8.732;2022-08-11T14:58:12;3.20;;;1.60;;
33830;SDS011;20137;48.834;8.732;2022-08-11T15:00:41;2.65;;;1.42;;
33830;SDS011;20137;48.834;8.732;2022-08-11T15:03:09;4.65;;;1.38;;
33830;SDS011;20137;48.834;8.732;2022-08-11T15:05:57;3.50;;;1.80;;
33830;SDS011;20137;48.834;8.732;2022-08-11T15:08:34;5.10;;;1.30;;
33830;SDS011;20137;48.834;8.732;2022-08-11T15:11:21;4.90;;;1.60;;
33830;SDS011;20137;48.834;8.732;2022-08-11T15:14:13;8.30;;;1.60;;
33830;SDS011;20137;48.834;8.732;2022-08-11T15:16:59;5.47;;;1.65;;
33830;SDS011;20137;48.834;8.732;2022-08-11T15:19:32;2.53;;;1.60;;
33830;SDS011;20137;48.834;8.732;2022-08-11T15:21:59;6.85;;;1.80;;
33830;SDS011;20137;48.834;8.732;2022-08-11T15:24:44;6.45;;;2.03;;
33830;SDS011;20137;48.834;8.732;2022-08-11T15:27:11;3.97;;;1.42;;
33830;SDS011;20137;48.834;8.732;2022-08-11T15:30:00;2.25;;;1.77;;
33830;SDS011;20137;48.834;8.732;2022-08-11T15:32:47;1.88;;;1.63;;
33830;SDS011;20137;48.834;8.732;2022-08-11T15:35:33;2.90;;;1.50;;
33830;SDS011;20137;48.834;8.732;2022-08-11T15:38:20;3.15;;;1.38;;
33830;SDS011;20137;48.834;8.732;2022-08-11T15:40:47;2.78;;;1.48;;
33830;SDS011;20137;48.834;8.732;2022-08-11T15:43:43;2.63;;;1.60;;
33830;SDS011;20137;48.834;8.732;2022-08-11T15:46:36;3.35;;;1.52;;
33830;SDS011;20137;48.834;8.732;2022-08-11T15:49:07;2.42;;;1.60;;
33830;SDS011;20137;48.834;8.732;2022-08-11T15:51:48;2.95;;;1.80;;
33830;SDS011;20137;48.834;8.732;2022-08-11T15:54:34;2.80;;;1.75;;
33830;SDS011;20137;48.834;8.732;2022-08-11T15:57:05;4.43;;;1.55;;
33830;SDS011;20137;48.834;8.732;2022-08-11T15:59:32;2.03;;;1.50;;
33830;SDS011;20137;48.834;8.732;2022-08-11T16:02:19;2.20;;;1.75;;
33830;SDS011;20137;48.834;8.732;2022-08-11T16:05:02;2.42;;;1.80;;
33830;SDS011;20137;48.834;8.732;2022-08-11T16:07:32;4.20;;;1.67;;
33830;SDS011;20137;48.834;8.732;2022-08-11T16:12:39;4.75;;;1.65;;
33830;SDS011;20137;48.834;8.732;2022-08-11T16:15:27;3.80;;;1.50;;
33830;SDS011;20137;48.834;8.732;2022-08-11T16:18:12;4.18;;;1.55;;
33830;SDS011;20137;48.834;8.732;2022-08-11T16:20:42;4.07;;;1.50;;
33830;SDS011;20137;48.834;8.732;2022-08-11T16:23:10;2.60;;;1.60;;
33830;SDS011;20137;48.834;8.732;2022-08-11T16:25:39;5.90;;;1.60;;
33830;SDS011;20137;48.834;8.732;2022-08-11T16:28:05;4.18;;;1.65;;
33830;SDS011;20137;48.834;8.732;2022-08-11T16:30:34;3.35;;;1.55;;
33830;SDS011;20137;48.834;8.732;2022-08-11T16:33:04;3.33;;;1.50;;
33830;SDS011;20137;48.834;8.732;2022-08-11T16:35:34;4.38;;;1.50;;
33830;SDS011;20137;48.834;8.732;2022-08-11T16:38:21;5.85;;;1.60;;
33830;SDS011;20137;48.834;8.732;2022-08-11T16:41:00;4.38;;;1.60;;
33830;SDS011;20137;48.834;8.732;2022-08-11T16:43:30;2.08;;;1.60;;
33830;SDS011;20137;48.834;8.732;2022-08-11T16:46:16;3.80;;;1.60;;
33830;SDS011;20137;48.834;8.732;2022-08-11T16:49:05;3.35;;;1.55;;
33830;SDS011;20137;48.834;8.732;2022-08-11T16:51:37;2.00;;;1.52;;
33830;SDS011;20137;48.834;8.732;2022-08-11T16:54:03;4.93;;;1.65;;
33830;SDS011;20137;48.834;8.732;2022-08-11T16:56:31;2.25;;;1.58;;
33830;SDS011;20137;48.834;8.732;2022-08-11T16:59:01;5.60;;;1.90;;
33830;SDS011;20137;48.834;8.732;2022-08-11T17:01:40;4.53;;;1.50;;
33830;SDS011;20137;48.834;8.732;2022-08-11T17:04:19;4.03;;;1.90;;
33830;SDS011;20137;48.834;8.732;2022-08-11T17:07:11;4.63;;;1.70;;
33830;SDS011;20137;48.834;8.732;2022-08-11T17:10:02;6.22;;;1.80;;
33830;SDS011;20137;48.834;8.732;2022-08-11T17:12:49;6.43;;;1.70;;
33830;SDS011;20137;48.834;8.732;2022-08-11T17:16:09;3.85;;;1.55;;
33830;SDS011;20137;48.834;8.732;2022-08-11T17:21:05;2.75;;;1.48;;
33830;SDS011;20137;48.834;8.732;2022-08-11T17:23:34;3.15;;;1.52;;
33830;SDS011;20137;48.834;8.732;2022-08-11T17:26:17;2.63;;;1.40;;
33830;SDS011;20137;48.834;8.732;2022-08-11T17:28:51;4.47;;;1.58;;
33830;SDS011;20137;48.834;8.732;2022-08-11T17:31:22;3.20;;;1.35;;
33830;SDS011;20137;48.834;8.732;2022-08-11T17:34:09;3.38;;;1.55;;
33830;SDS011;20137;48.834;8.732;2022-08-11T17:36:55;4.50;;;1.90;;
33830;SDS011;20137;48.834;8.732;2022-08-11T17:39:25;3.40;;;1.55;;
33830;SDS011;20137;48.834;8.732;2022-08-11T17:41:54;4.35;;;1.48;;
33830;SDS011;20137;48.834;8.732;2022-08-11T17:44:40;8.45;;;1.85;;
33830;SDS011;20137;48.834;8.732;2022-08-11T17:47:26;3.40;;;1.73;;
33830;SDS011;20137;48.834;8.732;2022-08-11T17:50:12;5.75;;;1.70;;
33830;SDS011;20137;48.834;8.732;2022-08-11T17:52:38;3.40;;;1.90;;
33830;SDS011;20137;48.834;8.732;2022-08-11T17:55:24;6.15;;;1.73;;
33830;SDS011;20137;48.834;8.732;2022-08-11T17:58:09;2.10;;;1.67;;
33830;SDS011;20137;48.834;8.732;2022-08-11T18:00:56;5.03;;;1.70;;
33830;SDS011;20137;48.834;8.732;2022-08-11T18:03:22;5.65;;;1.95;;
33830;SDS011;20137;48.834;8.732;2022-08-11T18:06:03;4.18;;;1.65;;
33830;SDS011;20137;48.834;8.732;2022-08-11T18:08:33;1.80;;;1.50;;
33830;SDS011;20137;48.834;8.732;2022-08-11T18:11:19;2.13;;;1.70;;
33830;SDS011;20137;48.834;8.732;2022-08-11T18:14:05;2.25;;;1.85;;
33830;SDS011;20137;48.834;8.732;2022-08-11T18:16:51;1.55;;;1.38;;
33830;SDS011;20137;48.834;8.732;2022-08-11T18:19:35;4.15;;;1.80;;
33830;SDS011;20137;48.834;8.732;2022-08-11T18:22:23;2.95;;;1.80;;
33830;SDS011;20137;48.834;8.732;2022-08-11T18:25:13;2.95;;;1.63;;
33830;SDS011;20137;48.834;8.732;2022-08-11T18:28:00;12.13;;;1.70;;
33830;SDS011;20137;48.834;8.732;2022-08-11T18:30:50;2.97;;;1.80;;
33830;SDS011;20137;48.834;8.732;2022-08-11T18:33:43;4.72;;;2.05;;
33830;SDS011;20137;48.834;8.732;2022-08-11T18:36:34;5.68;;;1.80;;
33830;SDS011;20137;48.834;8.732;2022-08-11T18:39:24;6.63;;;1.60;;
33830;SDS011;20137;48.834;8.732;2022-08-11T18:42:13;6.75;;;1.90;;
33830;SDS011;20137;48.834;8.732;2022-08-11T18:45:00;6.20;;;2.00;;
33830;SDS011;20137;48.834;8.732;2022-08-11T18:47:50;4.80;;;2.08;;
33830;SDS011;20137;48.834;8.732;2022-08-11T18:50:39;4.13;;;1.85;;
33830;SDS011;20137;48.834;8.732;2022-08-11T18:53:25;1.95;;;1.75;;
33830;SDS011;20137;48.834;8.732;2022-08-11T18:56:11;6.80;;;1.80;;
33830;SDS011;20137;48.834;8.732;2022-08-11T18:58:56;4.45;;;1.55;;
33830;SDS011;20137;48.834;8.732;2022-08-11T19:01:43;3.45;;;1.90;;
33830;SDS011;20137;48.834;8.732;2022-08-11T19:04:27;4.03;;;2.20;;
33830;SDS011;20137;48.834;8.732;2022-08-11T19:07:13;5.10;;;1.80;;
33830;SDS011;20137;48.834;8.732;2022-08-11T19:09:59;7.18;;;2.10;;
33830;SDS011;20137;48.834;8.732;2022-08-11T19:12:45;3.65;;;2.40;;
33830;SDS011;20137;48.834;8.732;2022-08-11T19:15:30;6.95;;;2.10;;
33830;SDS011;20137;48.834;8.732;2022-08-11T19:18:18;3.60;;;2.00;;
33830;SDS011;20137;48.834;8.732;2022-08-11T19:21:06;2.78;;;1.83;;
33830;SDS011;20137;48.834;8.732;2022-08-11T19:23:51;3.30;;;1.95;;
33830;SDS011;20137;48.834;8.732;2022-08-11T19:26:38;4.82;;;2.00;;
33830;SDS011;20137;48.834;8.732;2022-08-11T19:29:24;4.97;;;1.80;;
33830;SDS011;20137;48.834;8.732;2022-08-11T19:32:11;2.38;;;1.90;;
33830;SDS011;20137;48.834;8.732;2022-08-11T19:34:56;4.97;;;1.70;;
33830;SDS011;20137;48.834;8.732;2022-08-11T19:37:41;2.90;;;1.98;;